El Alamo, Spain
Current Conditions -  °F | °C
As of 11:00 AM on Tuesday 27 Jan 2015 (Local Time) from LEVS Reporting Station
Clear Clear  
Wind Chill: 50°   Ceiling: Unl
Heat Index: 50°   Visibility: 6mi
Dew Point: 34°   Wind: 0mph
Humidity: 54%   Direction: NA
Pressure: 30.39"   Gusts: NA
Location:  40.23°N, 3.99°W
Report Text: LEVS 271000Z 00000KT CAVOK 10/01 Q1029
Loading
Personal Weather Stations






























Interactive Weather Map New forecast layout! Learn more

10-Day Weather Forecast

Advertisements
Track Severe Weather on mobile